createdAt,value
2022-08-17T00:01:22.588Z,18.50
2022-08-17T00:05:30.305Z,18.32
2022-08-17T00:09:33.983Z,18.08
2022-08-17T00:13:44.195Z,17.93
2022-08-17T00:17:50.429Z,17.83
2022-08-17T00:22:31.087Z,17.97
2022-08-17T00:26:43.686Z,18.14
2022-08-17T00:30:50.914Z,18.04
2022-08-17T00:34:54.848Z,17.94
2022-08-17T00:38:56.898Z,17.98
2022-08-17T00:43:09.797Z,18.16
2022-08-17T00:47:13.202Z,18.26
2022-08-17T00:51:28.502Z,18.36
2022-08-17T00:55:31.396Z,18.42
2022-08-17T00:59:38.855Z,18.44
2022-08-17T01:03:41.633Z,18.32
2022-08-17T01:07:44.682Z,18.18
2022-08-17T01:11:52.163Z,18.17
2022-08-17T01:16:01.981Z,18.28
2022-08-17T01:20:04.734Z,18.26
2022-08-17T01:24:07.605Z,18.26
2022-08-17T01:28:10.125Z,18.23
2022-08-17T01:32:15.199Z,18.22
2022-08-17T01:36:17.301Z,18.15
2022-08-17T01:40:33.639Z,18.01
2022-08-17T01:44:36.017Z,17.86
2022-08-17T01:48:41.258Z,17.73
2022-08-17T01:52:45.393Z,17.67
2022-08-17T01:56:50.181Z,17.64
2022-08-17T02:01:00.425Z,17.64
2022-08-17T02:05:04.613Z,17.68
2022-08-17T02:09:07.568Z,17.71
2022-08-17T02:13:19.546Z,17.56
2022-08-17T02:17:21.594Z,17.42
2022-08-17T02:21:23.646Z,17.38
2022-08-17T02:25:26.614Z,17.51
2022-08-17T02:29:28.647Z,17.67
2022-08-17T02:33:42.110Z,17.82
2022-08-17T02:37:45.629Z,17.86
2022-08-17T02:42:01.659Z,17.83
2022-08-17T02:46:03.772Z,17.83
2022-08-17T02:50:07.649Z,17.82
2022-08-17T02:54:40.129Z,17.76
2022-08-17T02:58:35.858Z,17.56
2022-08-17T03:02:43.934Z,17.42
2022-08-17T03:06:45.986Z,17.30
2022-08-17T03:10:48.014Z,17.33
2022-08-17T03:14:50.048Z,17.32
2022-08-17T03:18:52.112Z,17.34
2022-08-17T03:22:55.967Z,17.38
2022-08-17T03:27:04.908Z,17.53
2022-08-17T03:31:07.565Z,17.58
2022-08-17T03:35:12.074Z,17.61
2022-08-17T03:39:14.963Z,17.56
2022-08-17T03:43:18.683Z,17.54
2022-08-17T03:47:40.197Z,17.35
2022-08-17T03:52:02.159Z,17.15
2022-08-17T03:56:23.337Z,17.00
2022-08-17T04:00:25.355Z,17.13
2022-08-17T04:04:28.058Z,17.29
2022-08-17T04:08:30.450Z,17.38
2022-08-17T04:12:44.640Z,17.47
2022-08-17T04:16:46.708Z,17.53
2022-08-17T04:20:49.182Z,17.41
2022-08-17T04:24:51.214Z,17.29
2022-08-17T04:28:53.299Z,17.33
2022-08-17T04:33:07.384Z,17.49
2022-08-17T04:37:09.521Z,17.60
2022-08-17T04:41:31.519Z,17.70
2022-08-17T04:45:33.703Z,17.91
2022-08-17T04:49:35.737Z,18.06
2022-08-17T04:53:42.171Z,18.23
2022-08-17T04:57:45.236Z,18.44
2022-08-17T05:01:49.504Z,18.96
2022-08-17T05:05:51.602Z,19.16
2022-08-17T05:09:53.678Z,19.30
2022-08-17T05:13:57.463Z,19.36
2022-08-17T05:17:59.574Z,19.46
2022-08-17T05:22:05.602Z,19.53
2022-08-17T05:26:08.019Z,19.62
2022-08-17T05:30:15.801Z,19.70
2022-08-17T05:34:17.814Z,19.97
2022-08-17T05:38:22.363Z,20.74
2022-08-17T05:42:24.372Z,24.07
2022-08-17T05:46:31.192Z,26.28
2022-08-17T05:51:00.579Z,24.93
2022-08-17T05:55:15.183Z,24.38
2022-08-17T05:59:35.080Z,23.98
2022-08-17T06:03:44.292Z,27.82
2022-08-17T06:07:46.455Z,29.36
2022-08-17T06:11:58.823Z,27.95
2022-08-17T06:16:33.153Z,26.48
2022-08-17T06:20:48.990Z,25.29
2022-08-17T06:25:01.045Z,24.45
2022-08-17T06:29:18.572Z,23.87
2022-08-17T06:33:25.722Z,23.44
2022-08-17T06:37:44.937Z,23.00
2022-08-17T06:42:03.290Z,23.07
2022-08-17T06:46:12.909Z,23.33
2022-08-17T06:50:24.070Z,24.04
2022-08-17T06:54:45.643Z,25.01
2022-08-17T06:58:48.307Z,25.50
2022-08-17T07:03:10.581Z,25.85
2022-08-17T07:07:32.077Z,26.33
2022-08-17T07:12:02.357Z,26.48
2022-08-17T07:16:15.740Z,26.55
2022-08-17T07:20:22.376Z,26.31
2022-08-17T07:24:30.744Z,26.00
2022-08-17T07:28:35.286Z,25.71
2022-08-17T07:32:50.929Z,25.45
2022-08-17T07:37:05.133Z,25.37
2022-08-17T07:41:10.642Z,25.37
2022-08-17T07:45:34.629Z,25.53
2022-08-17T07:49:40.319Z,25.75
2022-08-17T07:53:42.452Z,25.77
2022-08-17T07:57:56.012Z,25.76
2022-08-17T08:01:58.279Z,25.78
2022-08-17T08:06:02.935Z,25.74
2022-08-17T08:10:04.996Z,25.78
2022-08-17T08:14:33.947Z,25.88
2022-08-17T08:18:54.451Z,25.85
2022-08-17T08:23:25.427Z,25.80
2022-08-17T08:27:27.626Z,25.60
2022-08-17T08:31:42.179Z,25.33
2022-08-17T08:36:04.196Z,25.08
2022-08-17T08:40:23.362Z,24.82
2022-08-17T08:45:01.121Z,24.67
2022-08-17T08:49:12.683Z,24.51
2022-08-17T08:53:49.478Z,24.46
2022-08-17T08:58:04.826Z,24.41
2022-08-17T09:02:12.717Z,24.34
2022-08-17T09:06:32.187Z,24.28
2022-08-17T09:11:10.284Z,24.26
2022-08-17T09:15:20.378Z,24.36
2022-08-17T09:19:35.211Z,24.40
2022-08-17T09:23:44.871Z,24.41
2022-08-17T09:28:01.053Z,24.30
2022-08-17T09:32:14.898Z,24.22
2022-08-17T09:36:28.085Z,24.14
2022-08-17T09:40:39.531Z,24.08
2022-08-17T09:44:51.951Z,24.05
2022-08-17T09:48:57.310Z,23.97
2022-08-17T09:52:59.412Z,23.94
2022-08-17T09:57:28.495Z,24.15
2022-08-17T10:01:39.917Z,24.36
2022-08-17T10:06:00.951Z,24.67
2022-08-17T10:10:14.766Z,24.79
2022-08-17T10:14:43.760Z,24.77
2022-08-17T10:19:05.036Z,24.86
2022-08-17T10:23:30.192Z,25.18
2022-08-17T10:27:42.209Z,25.58
2022-08-17T10:31:52.978Z,25.83
2022-08-17T10:36:08.708Z,26.14
2022-08-17T10:40:24.565Z,26.38
2022-08-17T10:44:48.466Z,26.57
2022-08-17T10:49:12.394Z,26.66
2022-08-17T10:53:32.828Z,26.78
2022-08-17T10:57:38.647Z,26.82
2022-08-17T11:01:43.265Z,26.88
2022-08-17T11:05:59.961Z,26.86
2022-08-17T11:10:39.326Z,26.61
2022-08-17T11:15:35.858Z,26.24
2022-08-17T11:19:55.968Z,26.19
2022-08-17T11:24:27.265Z,26.25
2022-08-17T11:28:46.034Z,26.13
2022-08-17T11:32:54.850Z,26.08
2022-08-17T11:37:16.110Z,26.00
2022-08-17T11:41:35.395Z,25.96
2022-08-17T11:45:37.478Z,26.08
2022-08-17T11:49:58.058Z,26.46
2022-08-17T11:54:31.061Z,27.18
2022-08-17T11:58:30.358Z,27.51
2022-08-17T12:02:35.876Z,27.42
2022-08-17T12:06:50.589Z,27.51
2022-08-17T12:11:10.979Z,27.91
2022-08-17T12:15:18.668Z,28.24
2022-08-17T12:19:21.682Z,28.22
2022-08-17T12:23:50.221Z,28.25
2022-08-17T12:28:04.954Z,28.19
2022-08-17T12:32:17.395Z,28.15
2022-08-17T12:36:25.026Z,28.16
2022-08-17T12:40:32.710Z,28.19
2022-08-17T12:44:42.588Z,28.23
2022-08-17T12:48:58.869Z,28.20
2022-08-17T12:53:02.794Z,28.39
2022-08-17T12:57:11.885Z,28.46
2022-08-17T13:01:15.872Z,28.54
2022-08-17T13:05:37.651Z,28.73
2022-08-17T13:09:40.412Z,28.88
2022-08-17T13:13:46.947Z,29.01
2022-08-17T13:18:05.833Z,29.03
2022-08-17T13:22:12.595Z,29.17
2022-08-17T13:26:16.167Z,29.38
2022-08-17T13:30:23.892Z,29.44
2022-08-17T13:34:26.802Z,29.42
2022-08-17T13:38:45.666Z,29.38
2022-08-17T13:42:53.380Z,29.29
2022-08-17T13:46:57.468Z,29.25
2022-08-17T13:51:02.113Z,29.20
2022-08-17T13:55:19.532Z,28.97
2022-08-17T13:59:36.339Z,28.76
2022-08-17T14:03:51.683Z,28.75
2022-08-17T14:08:00.548Z,28.88
2022-08-17T14:12:05.874Z,29.08
2022-08-17T14:16:07.947Z,29.27
2022-08-17T14:20:12.243Z,29.34
2022-08-17T14:24:38.982Z,29.52
2022-08-17T14:28:56.511Z,29.49
2022-08-17T14:32:59.314Z,29.49
2022-08-17T14:37:01.742Z,29.53
2022-08-17T14:41:04.877Z,29.59
2022-08-17T14:45:27.382Z,29.59
2022-08-17T14:49:32.524Z,29.63
2022-08-17T14:53:34.642Z,29.73
2022-08-17T14:57:36.747Z,29.69
2022-08-17T15:01:38.828Z,29.59
2022-08-17T15:05:40.956Z,29.62
2022-08-17T15:09:43.310Z,29.68
2022-08-17T15:13:52.469Z,29.68
2022-08-17T15:17:55.833Z,29.61
2022-08-17T15:21:58.080Z,29.50
2022-08-17T15:26:00.223Z,29.46
2022-08-17T15:30:08.698Z,29.50
2022-08-17T15:34:10.757Z,29.48
2022-08-17T15:38:13.375Z,29.40
2022-08-17T15:42:16.131Z,29.30
2022-08-17T15:46:21.279Z,29.27
2022-08-17T15:50:23.388Z,29.27
2022-08-17T15:54:25.421Z,29.24
2022-08-17T15:58:35.272Z,29.13
2022-08-17T16:03:16.068Z,29.02
2022-08-17T16:07:00.326Z,28.87
2022-08-17T16:11:03.586Z,28.83
2022-08-17T16:15:07.456Z,28.81
2022-08-17T16:19:09.569Z,28.80
2022-08-17T16:23:15.046Z,28.83
2022-08-17T16:27:19.325Z,28.81
2022-08-17T16:31:21.561Z,28.82
2022-08-17T16:35:26.387Z,28.86
2022-08-17T16:39:30.724Z,28.86
2022-08-17T16:43:34.462Z,28.90
2022-08-17T16:47:36.760Z,28.90
2022-08-17T16:51:39.100Z,28.87
2022-08-17T16:55:42.537Z,28.90
2022-08-17T16:59:48.105Z,28.95
2022-08-17T17:03:58.039Z,28.94
2022-08-17T17:08:03.517Z,28.94
2022-08-17T17:12:12.879Z,28.96
2022-08-17T17:16:48.981Z,28.89
2022-08-17T17:20:58.458Z,28.83
2022-08-17T17:25:28.330Z,28.77
2022-08-17T17:29:58.042Z,28.73
2022-08-17T17:34:04.511Z,28.68
2022-08-17T17:38:22.047Z,28.60
2022-08-17T17:42:31.390Z,28.50
2022-08-17T17:46:40.163Z,28.44
2022-08-17T17:51:01.637Z,28.35
2022-08-17T17:55:17.305Z,28.23
2022-08-17T17:59:28.388Z,28.12
2022-08-17T18:03:39.011Z,27.99
2022-08-17T18:07:54.225Z,27.88
2022-08-17T18:12:27.169Z,27.74
2022-08-17T18:16:32.648Z,27.60
2022-08-17T18:20:46.590Z,27.47
2022-08-17T18:24:58.801Z,27.33
2022-08-17T18:29:11.368Z,27.18
2022-08-17T18:33:24.238Z,27.02
2022-08-17T18:37:51.369Z,26.90
2022-08-17T18:41:59.377Z,26.77
2022-08-17T18:46:29.036Z,26.67
2022-08-17T18:50:43.801Z,26.58
2022-08-17T18:55:14.200Z,26.43
2022-08-17T18:59:41.309Z,26.29
2022-08-17T19:03:44.108Z,26.17
2022-08-17T19:07:47.421Z,26.08
2022-08-17T19:11:49.791Z,25.91
2022-08-17T19:16:15.117Z,25.62
2022-08-17T19:20:24.002Z,25.44
2022-08-17T19:24:29.943Z,25.27
2022-08-17T19:28:54.561Z,25.09
2022-08-17T19:32:58.448Z,25.09
2022-08-17T19:37:03.696Z,25.14
2022-08-17T19:41:16.689Z,25.15
2022-08-17T19:45:45.112Z,25.04
2022-08-17T19:50:08.484Z,24.78
2022-08-17T19:54:26.436Z,24.56
2022-08-17T19:58:49.924Z,24.41
2022-08-17T20:03:06.216Z,24.33
2022-08-17T20:07:25.770Z,24.09
2022-08-17T20:11:31.201Z,23.93
2022-08-17T20:15:37.696Z,23.90
2022-08-17T20:19:53.212Z,23.87
2022-08-17T20:24:06.016Z,23.65
2022-08-17T20:28:30.587Z,23.54
2022-08-17T20:32:51.897Z,23.41
2022-08-17T20:37:09.063Z,23.36
2022-08-17T20:41:17.387Z,23.33
2022-08-17T20:45:22.245Z,23.15
2022-08-17T20:49:33.894Z,22.91
2022-08-17T20:53:48.169Z,22.70
2022-08-17T20:57:50.451Z,22.48
2022-08-17T21:02:18.743Z,22.23
2022-08-17T21:06:23.145Z,22.00
2022-08-17T21:10:25.120Z,22.08
2022-08-17T21:15:07.904Z,22.28
2022-08-17T21:19:44.401Z,22.39
2022-08-17T21:23:57.846Z,22.40
2022-08-17T21:28:08.702Z,22.42
2022-08-17T21:32:24.266Z,22.28
2022-08-17T21:36:27.215Z,22.05
2022-08-17T21:40:32.312Z,22.02
2022-08-17T21:44:37.782Z,22.05
2022-08-17T21:48:48.117Z,22.10
2022-08-17T21:52:56.453Z,22.06
2022-08-17T21:57:01.898Z,21.86
2022-08-17T22:01:21.147Z,21.67
2022-08-17T22:05:36.460Z,21.57
2022-08-17T22:09:47.608Z,21.50
2022-08-17T22:13:49.677Z,21.47
2022-08-17T22:17:52.142Z,21.33
2022-08-17T22:22:03.893Z,21.19
2022-08-17T22:26:09.551Z,21.18
2022-08-17T22:30:35.628Z,21.21
2022-08-17T22:34:38.957Z,21.19
2022-08-17T22:38:43.546Z,21.07
2022-08-17T22:42:47.544Z,20.95
2022-08-17T22:47:02.062Z,21.08
2022-08-17T22:51:19.367Z,21.20
2022-08-17T22:55:40.429Z,21.24
2022-08-17T22:59:47.793Z,21.25
2022-08-17T23:03:59.282Z,21.25
2022-08-17T23:08:01.603Z,21.25
2022-08-17T23:12:08.542Z,21.32
2022-08-17T23:16:10.557Z,21.43
2022-08-17T23:20:15.025Z,21.51
2022-08-17T23:24:23.780Z,21.56
2022-08-17T23:28:25.847Z,21.57
2022-08-17T23:32:27.941Z,21.54
2022-08-17T23:36:31.470Z,21.58
2022-08-17T23:40:33.564Z,21.57
2022-08-17T23:44:37.296Z,21.55
2022-08-17T23:48:41.011Z,21.50
2022-08-17T23:52:43.596Z,21.48
2022-08-17T23:56:46.752Z,21.44
